sensor_id;sensor_type;location;lat;lon;timestamp;P1;durP1;ratioP1;P2;durP2;ratioP2
6438;SDS011;3252;52.540;13.290;2022-12-20T00:00:49;26.80;;;17.67;;
6438;SDS011;3252;52.540;13.290;2022-12-20T00:02:51;26.83;;;16.90;;
6438;SDS011;3252;52.540;13.290;2022-12-20T00:04:53;31.80;;;16.33;;
6438;SDS011;3252;52.540;13.290;2022-12-20T00:06:55;24.97;;;17.23;;
6438;SDS011;3252;52.540;13.290;2022-12-20T00:08:58;25.50;;;15.93;;
6438;SDS011;3252;52.540;13.290;2022-12-20T00:11:02;29.20;;;16.93;;
6438;SDS011;3252;52.540;13.290;2022-12-20T00:13:05;25.93;;;16.70;;
6438;SDS011;3252;52.540;13.290;2022-12-20T00:15:08;26.83;;;15.93;;
6438;SDS011;3252;52.540;13.290;2022-12-20T00:17:12;23.13;;;16.43;;
6438;SDS011;3252;52.540;13.290;2022-12-20T00:19:15;27.27;;;17.20;;
6438;SDS011;3252;52.540;13.290;2022-12-20T00:21:17;24.70;;;15.90;;
6438;SDS011;3252;52.540;13.290;2022-12-20T00:23:19;23.00;;;16.20;;
6438;SDS011;3252;52.540;13.290;2022-12-20T00:25:22;26.80;;;16.70;;
6438;SDS011;3252;52.540;13.290;2022-12-20T00:27:24;22.63;;;15.53;;
6438;SDS011;3252;52.540;13.290;2022-12-20T00:29:26;25.43;;;16.83;;
6438;SDS011;3252;52.540;13.290;2022-12-20T00:31:30;23.87;;;15.57;;
6438;SDS011;3252;52.540;13.290;2022-12-20T00:33:34;25.70;;;16.07;;
6438;SDS011;3252;52.540;13.290;2022-12-20T00:35:40;30.33;;;16.37;;
6438;SDS011;3252;52.540;13.290;2022-12-20T00:37:43;22.67;;;15.23;;
6438;SDS011;3252;52.540;13.290;2022-12-20T00:39:45;22.10;;;15.07;;
6438;SDS011;3252;52.540;13.290;2022-12-20T00:41:48;26.13;;;16.10;;
6438;SDS011;3252;52.540;13.290;2022-12-20T00:43:51;25.23;;;15.47;;
6438;SDS011;3252;52.540;13.290;2022-12-20T00:45:56;23.67;;;16.07;;
6438;SDS011;3252;52.540;13.290;2022-12-20T00:47:59;24.00;;;15.83;;
6438;SDS011;3252;52.540;13.290;2022-12-20T00:50:03;25.83;;;17.00;;
6438;SDS011;3252;52.540;13.290;2022-12-20T00:52:06;22.33;;;16.03;;
6438;SDS011;3252;52.540;13.290;2022-12-20T00:54:08;25.30;;;16.23;;
6438;SDS011;3252;52.540;13.290;2022-12-20T00:56:11;26.53;;;15.63;;
6438;SDS011;3252;52.540;13.290;2022-12-20T00:58:13;23.77;;;15.60;;
6438;SDS011;3252;52.540;13.290;2022-12-20T01:00:16;24.07;;;15.17;;
6438;SDS011;3252;52.540;13.290;2022-12-20T01:02:18;22.10;;;15.33;;
6438;SDS011;3252;52.540;13.290;2022-12-20T01:04:22;22.90;;;15.43;;
6438;SDS011;3252;52.540;13.290;2022-12-20T01:06:25;23.13;;;15.20;;
6438;SDS011;3252;52.540;13.290;2022-12-20T01:08:28;25.23;;;15.30;;
6438;SDS011;3252;52.540;13.290;2022-12-20T01:10:32;22.17;;;15.43;;
6438;SDS011;3252;52.540;13.290;2022-12-20T01:12:34;22.27;;;15.07;;
6438;SDS011;3252;52.540;13.290;2022-12-20T01:14:37;24.27;;;15.67;;
6438;SDS011;3252;52.540;13.290;2022-12-20T01:16:40;22.17;;;14.63;;
6438;SDS011;3252;52.540;13.290;2022-12-20T01:18:44;22.20;;;15.10;;
6438;SDS011;3252;52.540;13.290;2022-12-20T01:20:46;23.00;;;14.93;;
6438;SDS011;3252;52.540;13.290;2022-12-20T01:22:50;22.53;;;14.80;;
6438;SDS011;3252;52.540;13.290;2022-12-20T01:24:52;23.27;;;15.27;;
6438;SDS011;3252;52.540;13.290;2022-12-20T01:26:54;27.30;;;16.10;;
6438;SDS011;3252;52.540;13.290;2022-12-20T01:28:57;24.93;;;15.43;;
6438;SDS011;3252;52.540;13.290;2022-12-20T01:31:00;25.03;;;15.63;;
6438;SDS011;3252;52.540;13.290;2022-12-20T01:33:03;22.43;;;14.77;;
6438;SDS011;3252;52.540;13.290;2022-12-20T01:35:05;20.63;;;14.10;;
6438;SDS011;3252;52.540;13.290;2022-12-20T01:37:07;24.43;;;14.97;;
6438;SDS011;3252;52.540;13.290;2022-12-20T01:39:12;22.50;;;15.37;;
6438;SDS011;3252;52.540;13.290;2022-12-20T01:41:15;24.47;;;14.73;;
6438;SDS011;3252;52.540;13.290;2022-12-20T01:43:19;22.83;;;14.70;;
6438;SDS011;3252;52.540;13.290;2022-12-20T01:45:24;23.87;;;15.20;;
6438;SDS011;3252;52.540;13.290;2022-12-20T01:47:30;26.43;;;15.87;;
6438;SDS011;3252;52.540;13.290;2022-12-20T01:49:35;23.60;;;15.53;;
6438;SDS011;3252;52.540;13.290;2022-12-20T01:51:42;20.13;;;14.27;;
6438;SDS011;3252;52.540;13.290;2022-12-20T01:53:50;24.00;;;14.67;;
6438;SDS011;3252;52.540;13.290;2022-12-20T01:55:58;21.50;;;14.37;;
6438;SDS011;3252;52.540;13.290;2022-12-20T01:58:05;21.23;;;14.30;;
6438;SDS011;3252;52.540;13.290;2022-12-20T02:00:10;22.60;;;15.23;;
6438;SDS011;3252;52.540;13.290;2022-12-20T02:02:15;24.97;;;15.80;;
6438;SDS011;3252;52.540;13.290;2022-12-20T02:04:18;25.40;;;14.87;;
6438;SDS011;3252;52.540;13.290;2022-12-20T02:06:21;23.37;;;14.80;;
6438;SDS011;3252;52.540;13.290;2022-12-20T02:08:25;21.60;;;14.93;;
6438;SDS011;3252;52.540;13.290;2022-12-20T02:10:28;20.87;;;14.50;;
6438;SDS011;3252;52.540;13.290;2022-12-20T02:12:46;22.07;;;14.20;;
6438;SDS011;3252;52.540;13.290;2022-12-20T02:14:58;20.13;;;14.43;;
6438;SDS011;3252;52.540;13.290;2022-12-20T02:17:08;23.57;;;14.47;;
6438;SDS011;3252;52.540;13.290;2022-12-20T02:19:23;22.80;;;14.53;;
6438;SDS011;3252;52.540;13.290;2022-12-20T02:21:51;20.87;;;14.27;;
6438;SDS011;3252;52.540;13.290;2022-12-20T02:27:00;22.37;;;15.00;;
6438;SDS011;3252;52.540;13.290;2022-12-20T02:29:34;19.60;;;13.70;;
6438;SDS011;3252;52.540;13.290;2022-12-20T02:31:41;18.43;;;13.73;;
6438;SDS011;3252;52.540;13.290;2022-12-20T02:33:47;22.27;;;14.80;;
6438;SDS011;3252;52.540;13.290;2022-12-20T02:35:53;20.70;;;13.43;;
6438;SDS011;3252;52.540;13.290;2022-12-20T02:37:56;21.90;;;14.07;;
6438;SDS011;3252;52.540;13.290;2022-12-20T02:39:59;21.63;;;14.53;;
6438;SDS011;3252;52.540;13.290;2022-12-20T02:42:04;22.57;;;14.17;;
6438;SDS011;3252;52.540;13.290;2022-12-20T02:44:08;24.23;;;14.33;;
6438;SDS011;3252;52.540;13.290;2022-12-20T02:46:32;20.10;;;14.30;;
6438;SDS011;3252;52.540;13.290;2022-12-20T02:48:36;20.70;;;13.30;;
6438;SDS011;3252;52.540;13.290;2022-12-20T02:50:41;20.57;;;13.97;;
6438;SDS011;3252;52.540;13.290;2022-12-20T02:52:46;20.47;;;14.27;;
6438;SDS011;3252;52.540;13.290;2022-12-20T02:54:50;20.07;;;14.17;;
6438;SDS011;3252;52.540;13.290;2022-12-20T02:56:53;20.40;;;13.50;;
6438;SDS011;3252;52.540;13.290;2022-12-20T02:59:01;19.33;;;14.00;;
6438;SDS011;3252;52.540;13.290;2022-12-20T03:01:10;21.93;;;13.90;;
6438;SDS011;3252;52.540;13.290;2022-12-20T03:03:16;19.23;;;13.57;;
6438;SDS011;3252;52.540;13.290;2022-12-20T03:05:25;21.50;;;13.90;;
6438;SDS011;3252;52.540;13.290;2022-12-20T03:07:28;20.07;;;14.07;;
6438;SDS011;3252;52.540;13.290;2022-12-20T03:09:31;20.90;;;14.07;;
6438;SDS011;3252;52.540;13.290;2022-12-20T03:11:36;20.73;;;13.30;;
6438;SDS011;3252;52.540;13.290;2022-12-20T03:13:40;20.40;;;13.33;;
6438;SDS011;3252;52.540;13.290;2022-12-20T03:15:43;19.80;;;13.63;;
6438;SDS011;3252;52.540;13.290;2022-12-20T03:17:45;18.97;;;13.73;;
6438;SDS011;3252;52.540;13.290;2022-12-20T03:19:47;22.13;;;15.03;;
6438;SDS011;3252;52.540;13.290;2022-12-20T03:21:51;22.63;;;14.33;;
6438;SDS011;3252;52.540;13.290;2022-12-20T03:23:53;19.77;;;13.03;;
6438;SDS011;3252;52.540;13.290;2022-12-20T03:25:56;24.90;;;14.27;;
6438;SDS011;3252;52.540;13.290;2022-12-20T03:28:07;19.80;;;13.00;;
6438;SDS011;3252;52.540;13.290;2022-12-20T03:30:10;18.97;;;12.70;;
6438;SDS011;3252;52.540;13.290;2022-12-20T03:32:13;19.43;;;13.43;;
6438;SDS011;3252;52.540;13.290;2022-12-20T03:34:18;16.83;;;12.60;;
6438;SDS011;3252;52.540;13.290;2022-12-20T03:36:20;20.97;;;13.73;;
6438;SDS011;3252;52.540;13.290;2022-12-20T03:38:27;19.70;;;13.37;;
6438;SDS011;3252;52.540;13.290;2022-12-20T03:40:29;21.37;;;13.90;;
6438;SDS011;3252;52.540;13.290;2022-12-20T03:42:34;19.90;;;13.33;;
6438;SDS011;3252;52.540;13.290;2022-12-20T03:44:36;22.07;;;13.47;;
6438;SDS011;3252;52.540;13.290;2022-12-20T03:46:39;21.53;;;13.23;;
6438;SDS011;3252;52.540;13.290;2022-12-20T03:48:41;17.73;;;12.33;;
6438;SDS011;3252;52.540;13.290;2022-12-20T03:50:44;21.80;;;13.37;;
6438;SDS011;3252;52.540;13.290;2022-12-20T03:52:46;18.63;;;13.43;;
6438;SDS011;3252;52.540;13.290;2022-12-20T03:54:51;19.83;;;13.17;;
6438;SDS011;3252;52.540;13.290;2022-12-20T03:56:55;19.33;;;13.33;;
6438;SDS011;3252;52.540;13.290;2022-12-20T03:58:57;18.47;;;12.70;;
6438;SDS011;3252;52.540;13.290;2022-12-20T04:01:00;21.47;;;12.97;;
6438;SDS011;3252;52.540;13.290;2022-12-20T04:03:28;22.13;;;12.73;;
6438;SDS011;3252;52.540;13.290;2022-12-20T04:05:31;21.37;;;13.27;;
6438;SDS011;3252;52.540;13.290;2022-12-20T04:07:33;20.23;;;12.90;;
6438;SDS011;3252;52.540;13.290;2022-12-20T04:09:35;18.77;;;13.23;;
6438;SDS011;3252;52.540;13.290;2022-12-20T04:11:44;17.60;;;12.57;;
6438;SDS011;3252;52.540;13.290;2022-12-20T04:13:49;22.13;;;13.13;;
6438;SDS011;3252;52.540;13.290;2022-12-20T04:15:53;21.23;;;13.37;;
6438;SDS011;3252;52.540;13.290;2022-12-20T04:17:56;20.67;;;13.43;;
6438;SDS011;3252;52.540;13.290;2022-12-20T04:20:00;20.30;;;13.00;;
6438;SDS011;3252;52.540;13.290;2022-12-20T04:22:19;17.83;;;12.57;;
6438;SDS011;3252;52.540;13.290;2022-12-20T04:24:31;20.50;;;12.97;;
6438;SDS011;3252;52.540;13.290;2022-12-20T04:27:01;19.17;;;12.87;;
6438;SDS011;3252;52.540;13.290;2022-12-20T04:29:04;18.83;;;13.20;;
6438;SDS011;3252;52.540;13.290;2022-12-20T04:31:07;18.53;;;12.67;;
6438;SDS011;3252;52.540;13.290;2022-12-20T04:33:10;18.43;;;12.37;;
6438;SDS011;3252;52.540;13.290;2022-12-20T04:35:13;22.30;;;13.63;;
6438;SDS011;3252;52.540;13.290;2022-12-20T04:37:16;19.27;;;12.67;;
6438;SDS011;3252;52.540;13.290;2022-12-20T04:39:23;21.10;;;13.17;;
6438;SDS011;3252;52.540;13.290;2022-12-20T04:41:44;19.03;;;13.20;;
6438;SDS011;3252;52.540;13.290;2022-12-20T04:43:49;22.10;;;12.57;;
6438;SDS011;3252;52.540;13.290;2022-12-20T04:45:54;18.97;;;13.10;;
6438;SDS011;3252;52.540;13.290;2022-12-20T04:47:58;19.23;;;12.77;;
6438;SDS011;3252;52.540;13.290;2022-12-20T04:50:08;18.83;;;12.93;;
6438;SDS011;3252;52.540;13.290;2022-12-20T04:52:11;18.80;;;12.57;;
6438;SDS011;3252;52.540;13.290;2022-12-20T04:54:30;15.27;;;12.23;;
6438;SDS011;3252;52.540;13.290;2022-12-20T04:56:45;18.33;;;12.47;;
6438;SDS011;3252;52.540;13.290;2022-12-20T04:58:55;20.53;;;12.70;;
6438;SDS011;3252;52.540;13.290;2022-12-20T05:00:59;18.93;;;12.90;;
6438;SDS011;3252;52.540;13.290;2022-12-20T05:03:09;20.70;;;14.00;;
6438;SDS011;3252;52.540;13.290;2022-12-20T05:05:11;19.63;;;12.73;;
6438;SDS011;3252;52.540;13.290;2022-12-20T05:07:20;19.10;;;12.40;;
6438;SDS011;3252;52.540;13.290;2022-12-20T05:09:26;21.37;;;12.83;;
6438;SDS011;3252;52.540;13.290;2022-12-20T05:11:28;19.90;;;13.07;;
6438;SDS011;3252;52.540;13.290;2022-12-20T05:13:31;21.20;;;12.87;;
6438;SDS011;3252;52.540;13.290;2022-12-20T05:15:36;20.43;;;12.80;;
6438;SDS011;3252;52.540;13.290;2022-12-20T05:17:39;19.80;;;12.30;;
6438;SDS011;3252;52.540;13.290;2022-12-20T05:19:41;18.40;;;12.87;;
6438;SDS011;3252;52.540;13.290;2022-12-20T05:21:44;18.43;;;12.50;;
6438;SDS011;3252;52.540;13.290;2022-12-20T05:24:04;18.53;;;12.90;;
6438;SDS011;3252;52.540;13.290;2022-12-20T05:26:51;21.50;;;13.17;;
6438;SDS011;3252;52.540;13.290;2022-12-20T05:28:53;18.37;;;13.17;;
6438;SDS011;3252;52.540;13.290;2022-12-20T05:30:57;20.03;;;13.47;;
6438;SDS011;3252;52.540;13.290;2022-12-20T05:33:03;26.87;;;20.00;;
6438;SDS011;3252;52.540;13.290;2022-12-20T05:35:06;19.13;;;13.83;;
6438;SDS011;3252;52.540;13.290;2022-12-20T05:37:10;17.93;;;12.57;;
6438;SDS011;3252;52.540;13.290;2022-12-20T05:39:14;20.33;;;12.73;;
6438;SDS011;3252;52.540;13.290;2022-12-20T05:41:19;18.60;;;13.63;;
6438;SDS011;3252;52.540;13.290;2022-12-20T05:43:23;18.77;;;12.93;;
6438;SDS011;3252;52.540;13.290;2022-12-20T05:45:26;18.23;;;12.43;;
6438;SDS011;3252;52.540;13.290;2022-12-20T05:47:36;21.10;;;13.87;;
6438;SDS011;3252;52.540;13.290;2022-12-20T05:49:42;19.47;;;12.73;;
6438;SDS011;3252;52.540;13.290;2022-12-20T05:51:45;21.83;;;13.60;;
6438;SDS011;3252;52.540;13.290;2022-12-20T05:53:56;19.30;;;12.93;;
6438;SDS011;3252;52.540;13.290;2022-12-20T05:56:13;18.60;;;12.70;;
6438;SDS011;3252;52.540;13.290;2022-12-20T05:58:16;23.30;;;15.00;;
6438;SDS011;3252;52.540;13.290;2022-12-20T06:00:26;18.43;;;12.57;;
6438;SDS011;3252;52.540;13.290;2022-12-20T06:02:28;20.93;;;13.03;;
6438;SDS011;3252;52.540;13.290;2022-12-20T06:04:38;18.63;;;12.37;;
6438;SDS011;3252;52.540;13.290;2022-12-20T06:06:52;18.97;;;13.80;;
6438;SDS011;3252;52.540;13.290;2022-12-20T06:08:54;19.17;;;13.37;;
6438;SDS011;3252;52.540;13.290;2022-12-20T06:11:09;18.63;;;12.57;;
6438;SDS011;3252;52.540;13.290;2022-12-20T06:13:21;24.37;;;13.87;;
6438;SDS011;3252;52.540;13.290;2022-12-20T06:15:27;17.87;;;12.60;;
6438;SDS011;3252;52.540;13.290;2022-12-20T06:17:29;18.60;;;13.50;;
6438;SDS011;3252;52.540;13.290;2022-12-20T06:19:32;21.73;;;13.53;;
6438;SDS011;3252;52.540;13.290;2022-12-20T06:21:35;21.17;;;13.03;;
6438;SDS011;3252;52.540;13.290;2022-12-20T06:23:38;17.20;;;12.60;;
6438;SDS011;3252;52.540;13.290;2022-12-20T06:25:42;20.07;;;13.40;;
6438;SDS011;3252;52.540;13.290;2022-12-20T06:27:45;20.40;;;13.57;;
6438;SDS011;3252;52.540;13.290;2022-12-20T06:29:50;19.53;;;14.17;;
6438;SDS011;3252;52.540;13.290;2022-12-20T06:31:56;23.37;;;14.13;;
6438;SDS011;3252;52.540;13.290;2022-12-20T06:34:00;18.37;;;13.23;;
6438;SDS011;3252;52.540;13.290;2022-12-20T06:36:07;21.57;;;13.70;;
6438;SDS011;3252;52.540;13.290;2022-12-20T06:38:11;22.57;;;14.30;;
6438;SDS011;3252;52.540;13.290;2022-12-20T06:40:14;23.53;;;13.93;;
6438;SDS011;3252;52.540;13.290;2022-12-20T06:42:16;18.77;;;13.57;;
6438;SDS011;3252;52.540;13.290;2022-12-20T06:44:20;20.87;;;14.37;;
6438;SDS011;3252;52.540;13.290;2022-12-20T06:46:23;21.67;;;14.50;;
6438;SDS011;3252;52.540;13.290;2022-12-20T06:48:27;22.03;;;14.53;;
6438;SDS011;3252;52.540;13.290;2022-12-20T06:50:29;27.23;;;15.40;;
6438;SDS011;3252;52.540;13.290;2022-12-20T06:52:32;24.17;;;14.67;;
6438;SDS011;3252;52.540;13.290;2022-12-20T06:54:35;25.87;;;14.80;;
6438;SDS011;3252;52.540;13.290;2022-12-20T06:56:38;20.17;;;14.60;;
6438;SDS011;3252;52.540;13.290;2022-12-20T06:58:44;22.33;;;14.93;;
6438;SDS011;3252;52.540;13.290;2022-12-20T07:00:49;25.53;;;15.13;;
6438;SDS011;3252;52.540;13.290;2022-12-20T07:02:51;26.70;;;15.53;;
6438;SDS011;3252;52.540;13.290;2022-12-20T07:04:54;24.13;;;14.97;;
6438;SDS011;3252;52.540;13.290;2022-12-20T07:06:56;22.77;;;14.87;;
6438;SDS011;3252;52.540;13.290;2022-12-20T07:08:58;24.27;;;15.30;;
6438;SDS011;3252;52.540;13.290;2022-12-20T07:11:06;21.63;;;15.20;;
6438;SDS011;3252;52.540;13.290;2022-12-20T07:13:09;26.73;;;15.33;;
6438;SDS011;3252;52.540;13.290;2022-12-20T07:15:11;23.97;;;15.03;;
6438;SDS011;3252;52.540;13.290;2022-12-20T07:17:13;39.50;;;23.83;;
6438;SDS011;3252;52.540;13.290;2022-12-20T07:19:16;57.27;;;34.13;;
6438;SDS011;3252;52.540;13.290;2022-12-20T07:21:18;36.47;;;22.47;;
6438;SDS011;3252;52.540;13.290;2022-12-20T07:23:21;34.10;;;18.80;;
6438;SDS011;3252;52.540;13.290;2022-12-20T07:25:23;24.63;;;16.33;;
6438;SDS011;3252;52.540;13.290;2022-12-20T07:27:27;27.37;;;15.67;;
6438;SDS011;3252;52.540;13.290;2022-12-20T07:29:30;25.77;;;15.27;;
6438;SDS011;3252;52.540;13.290;2022-12-20T07:31:32;26.33;;;15.87;;
6438;SDS011;3252;52.540;13.290;2022-12-20T07:33:36;22.97;;;15.60;;
6438;SDS011;3252;52.540;13.290;2022-12-20T07:35:39;28.97;;;16.67;;
6438;SDS011;3252;52.540;13.290;2022-12-20T07:37:43;23.27;;;15.60;;
6438;SDS011;3252;52.540;13.290;2022-12-20T07:39:46;27.47;;;17.20;;
6438;SDS011;3252;52.540;13.290;2022-12-20T07:41:51;27.67;;;17.00;;
6438;SDS011;3252;52.540;13.290;2022-12-20T07:43:57;24.73;;;15.53;;
6438;SDS011;3252;52.540;13.290;2022-12-20T07:46:00;25.47;;;15.67;;
6438;SDS011;3252;52.540;13.290;2022-12-20T07:48:02;24.77;;;15.33;;
6438;SDS011;3252;52.540;13.290;2022-12-20T07:50:06;30.87;;;16.97;;
6438;SDS011;3252;52.540;13.290;2022-12-20T07:52:09;24.33;;;15.33;;
6438;SDS011;3252;52.540;13.290;2022-12-20T07:54:14;28.40;;;17.33;;
6438;SDS011;3252;52.540;13.290;2022-12-20T07:56:20;32.47;;;18.27;;
6438;SDS011;3252;52.540;13.290;2022-12-20T07:58:23;30.67;;;17.93;;
6438;SDS011;3252;52.540;13.290;2022-12-20T08:00:27;29.33;;;17.97;;
6438;SDS011;3252;52.540;13.290;2022-12-20T08:02:31;29.77;;;17.17;;
6438;SDS011;3252;52.540;13.290;2022-12-20T08:04:37;30.60;;;17.57;;
6438;SDS011;3252;52.540;13.290;2022-12-20T08:06:40;29.17;;;17.30;;
6438;SDS011;3252;52.540;13.290;2022-12-20T08:08:43;30.27;;;17.30;;
6438;SDS011;3252;52.540;13.290;2022-12-20T08:10:48;31.10;;;18.00;;
6438;SDS011;3252;52.540;13.290;2022-12-20T08:12:51;29.23;;;18.47;;
6438;SDS011;3252;52.540;13.290;2022-12-20T08:14:53;32.60;;;17.77;;
6438;SDS011;3252;52.540;13.290;2022-12-20T08:16:57;34.70;;;18.10;;
6438;SDS011;3252;52.540;13.290;2022-12-20T08:19:01;33.33;;;18.60;;
6438;SDS011;3252;52.540;13.290;2022-12-20T08:21:05;30.73;;;18.13;;
6438;SDS011;3252;52.540;13.290;2022-12-20T08:23:08;29.37;;;18.53;;
6438;SDS011;3252;52.540;13.290;2022-12-20T08:25:10;33.67;;;19.53;;
6438;SDS011;3252;52.540;13.290;2022-12-20T08:27:12;30.40;;;19.10;;
6438;SDS011;3252;52.540;13.290;2022-12-20T08:29:14;32.23;;;19.30;;
6438;SDS011;3252;52.540;13.290;2022-12-20T08:31:16;36.03;;;19.23;;
6438;SDS011;3252;52.540;13.290;2022-12-20T08:33:20;34.47;;;19.13;;
6438;SDS011;3252;52.540;13.290;2022-12-20T08:35:22;30.63;;;19.00;;
6438;SDS011;3252;52.540;13.290;2022-12-20T08:37:25;30.63;;;17.10;;
6438;SDS011;3252;52.540;13.290;2022-12-20T08:39:27;30.93;;;19.20;;
6438;SDS011;3252;52.540;13.290;2022-12-20T08:41:29;29.90;;;18.73;;
6438;SDS011;3252;52.540;13.290;2022-12-20T08:43:32;26.80;;;19.13;;
6438;SDS011;3252;52.540;13.290;2022-12-20T08:45:36;30.53;;;19.23;;
6438;SDS011;3252;52.540;13.290;2022-12-20T08:47:40;30.50;;;18.70;;
6438;SDS011;3252;52.540;13.290;2022-12-20T08:49:47;33.13;;;19.03;;
6438;SDS011;3252;52.540;13.290;2022-12-20T08:51:53;34.07;;;18.93;;
6438;SDS011;3252;52.540;13.290;2022-12-20T08:53:56;31.50;;;18.20;;
6438;SDS011;3252;52.540;13.290;2022-12-20T08:56:02;29.90;;;18.57;;
6438;SDS011;3252;52.540;13.290;2022-12-20T08:58:07;32.63;;;18.50;;
6438;SDS011;3252;52.540;13.290;2022-12-20T09:00:12;31.30;;;18.90;;
6438;SDS011;3252;52.540;13.290;2022-12-20T10:09:12;26.07;;;15.43;;
6438;SDS011;3252;52.540;13.290;2022-12-20T10:33:25;21.97;;;14.07;;
6438;SDS011;3252;52.540;13.290;2022-12-20T10:35:32;22.63;;;14.60;;
6438;SDS011;3252;52.540;13.290;2022-12-20T10:37:40;21.17;;;14.60;;
6438;SDS011;3252;52.540;13.290;2022-12-20T10:39:57;17.60;;;13.40;;
6438;SDS011;3252;52.540;13.290;2022-12-20T10:41:59;19.60;;;13.70;;
6438;SDS011;3252;52.540;13.290;2022-12-20T10:44:02;23.00;;;14.27;;
6438;SDS011;3252;52.540;13.290;2022-12-20T10:46:16;20.73;;;13.90;;
6438;SDS011;3252;52.540;13.290;2022-12-20T10:48:27;19.47;;;13.40;;
6438;SDS011;3252;52.540;13.290;2022-12-20T10:50:31;20.47;;;14.23;;
6438;SDS011;3252;52.540;13.290;2022-12-20T10:52:33;18.30;;;12.73;;
6438;SDS011;3252;52.540;13.290;2022-12-20T10:54:36;23.37;;;15.93;;
6438;SDS011;3252;52.540;13.290;2022-12-20T10:56:39;23.33;;;15.83;;
6438;SDS011;3252;52.540;13.290;2022-12-20T10:58:42;21.07;;;14.03;;
6438;SDS011;3252;52.540;13.290;2022-12-20T11:00:52;22.03;;;13.37;;
6438;SDS011;3252;52.540;13.290;2022-12-20T11:03:09;19.07;;;12.27;;
6438;SDS011;3252;52.540;13.290;2022-12-20T11:05:20;22.03;;;12.30;;
6438;SDS011;3252;52.540;13.290;2022-12-20T11:07:25;17.97;;;13.13;;
6438;SDS011;3252;52.540;13.290;2022-12-20T11:09:30;16.90;;;12.43;;
6438;SDS011;3252;52.540;13.290;2022-12-20T11:11:34;17.87;;;13.10;;
6438;SDS011;3252;52.540;13.290;2022-12-20T11:13:36;18.37;;;13.40;;
6438;SDS011;3252;52.540;13.290;2022-12-20T11:15:38;19.27;;;12.50;;
6438;SDS011;3252;52.540;13.290;2022-12-20T11:17:49;17.87;;;12.60;;
6438;SDS011;3252;52.540;13.290;2022-12-20T11:19:57;22.57;;;12.33;;
6438;SDS011;3252;52.540;13.290;2022-12-20T11:22:11;18.87;;;12.80;;
6438;SDS011;3252;52.540;13.290;2022-12-20T11:24:25;16.33;;;12.10;;
6438;SDS011;3252;52.540;13.290;2022-12-20T11:26:40;19.47;;;11.83;;
6438;SDS011;3252;52.540;13.290;2022-12-20T11:28:57;18.90;;;11.40;;
6438;SDS011;3252;52.540;13.290;2022-12-20T11:31:13;15.03;;;11.53;;
6438;SDS011;3252;52.540;13.290;2022-12-20T11:33:35;17.67;;;11.47;;
6438;SDS011;3252;52.540;13.290;2022-12-20T11:35:48;16.33;;;11.23;;
6438;SDS011;3252;52.540;13.290;2022-12-20T11:37:59;17.50;;;12.27;;
6438;SDS011;3252;52.540;13.290;2022-12-20T11:40:15;17.07;;;12.60;;
6438;SDS011;3252;52.540;13.290;2022-12-20T11:42:28;14.93;;;10.93;;
6438;SDS011;3252;52.540;13.290;2022-12-20T11:44:44;19.57;;;10.80;;
6438;SDS011;3252;52.540;13.290;2022-12-20T11:46:57;16.90;;;11.27;;
6438;SDS011;3252;52.540;13.290;2022-12-20T11:49:14;16.37;;;10.77;;
6438;SDS011;3252;52.540;13.290;2022-12-20T11:51:38;17.90;;;11.47;;
6438;SDS011;3252;52.540;13.290;2022-12-20T11:53:49;18.13;;;11.37;;
6438;SDS011;3252;52.540;13.290;2022-12-20T11:55:57;15.23;;;10.90;;
6438;SDS011;3252;52.540;13.290;2022-12-20T11:58:03;14.73;;;10.33;;
6438;SDS011;3252;52.540;13.290;2022-12-20T12:00:13;17.53;;;11.23;;
6438;SDS011;3252;52.540;13.290;2022-12-20T12:02:19;18.77;;;10.70;;
6438;SDS011;3252;52.540;13.290;2022-12-20T12:04:29;15.37;;;10.80;;
6438;SDS011;3252;52.540;13.290;2022-12-20T12:06:36;15.37;;;11.37;;
6438;SDS011;3252;52.540;13.290;2022-12-20T12:08:44;22.77;;;16.27;;
6438;SDS011;3252;52.540;13.290;2022-12-20T12:10:53;16.87;;;10.97;;
6438;SDS011;3252;52.540;13.290;2022-12-20T12:13:00;14.70;;;10.83;;
6438;SDS011;3252;52.540;13.290;2022-12-20T12:15:11;23.57;;;17.80;;
6438;SDS011;3252;52.540;13.290;2022-12-20T12:17:23;14.07;;;11.30;;
6438;SDS011;3252;52.540;13.290;2022-12-20T12:19:29;17.00;;;10.50;;
6438;SDS011;3252;52.540;13.290;2022-12-20T12:21:34;15.07;;;10.60;;
6438;SDS011;3252;52.540;13.290;2022-12-20T12:23:43;17.23;;;10.83;;
6438;SDS011;3252;52.540;13.290;2022-12-20T12:25:51;15.13;;;10.50;;
6438;SDS011;3252;52.540;13.290;2022-12-20T12:27:54;15.87;;;10.73;;
6438;SDS011;3252;52.540;13.290;2022-12-20T12:29:56;16.30;;;10.73;;
6438;SDS011;3252;52.540;13.290;2022-12-20T12:32:00;14.40;;;10.80;;
6438;SDS011;3252;52.540;13.290;2022-12-20T12:34:07;15.53;;;10.73;;
6438;SDS011;3252;52.540;13.290;2022-12-20T12:36:24;18.33;;;10.97;;
6438;SDS011;3252;52.540;13.290;2022-12-20T12:38:49;16.27;;;10.93;;
6438;SDS011;3252;52.540;13.290;2022-12-20T12:43:48;15.40;;;10.07;;
6438;SDS011;3252;52.540;13.290;2022-12-20T12:45:54;13.73;;;10.30;;
6438;SDS011;3252;52.540;13.290;2022-12-20T12:47:59;15.27;;;10.83;;
6438;SDS011;3252;52.540;13.290;2022-12-20T12:50:07;16.57;;;11.23;;
6438;SDS011;3252;52.540;13.290;2022-12-20T12:52:27;24.33;;;16.50;;
6438;SDS011;3252;52.540;13.290;2022-12-20T12:54:38;16.57;;;10.77;;
6438;SDS011;3252;52.540;13.290;2022-12-20T12:56:44;17.50;;;10.93;;
6438;SDS011;3252;52.540;13.290;2022-12-20T13:01:10;17.83;;;11.40;;
6438;SDS011;3252;52.540;13.290;2022-12-20T13:03:13;15.20;;;10.57;;
6438;SDS011;3252;52.540;13.290;2022-12-20T13:07:40;14.40;;;10.57;;
6438;SDS011;3252;52.540;13.290;2022-12-20T13:09:43;15.37;;;10.17;;
6438;SDS011;3252;52.540;13.290;2022-12-20T13:11:47;17.87;;;11.00;;
6438;SDS011;3252;52.540;13.290;2022-12-20T13:13:49;17.13;;;10.20;;
6438;SDS011;3252;52.540;13.290;2022-12-20T13:16:03;14.80;;;10.40;;
6438;SDS011;3252;52.540;13.290;2022-12-20T13:20:33;14.80;;;10.33;;
6438;SDS011;3252;52.540;13.290;2022-12-20T13:22:36;17.33;;;10.87;;
6438;SDS011;3252;52.540;13.290;2022-12-20T13:29:34;16.03;;;10.80;;
6438;SDS011;3252;52.540;13.290;2022-12-20T13:31:36;15.93;;;10.77;;
6438;SDS011;3252;52.540;13.290;2022-12-20T13:33:39;15.27;;;10.67;;
6438;SDS011;3252;52.540;13.290;2022-12-20T13:35:53;23.13;;;14.47;;
6438;SDS011;3252;52.540;13.290;2022-12-20T13:40:59;18.07;;;10.67;;
6438;SDS011;3252;52.540;13.290;2022-12-20T13:43:04;17.43;;;10.97;;
6438;SDS011;3252;52.540;13.290;2022-12-20T13:45:11;17.53;;;10.80;;
6438;SDS011;3252;52.540;13.290;2022-12-20T13:47:19;17.03;;;10.70;;
6438;SDS011;3252;52.540;13.290;2022-12-20T13:49:39;16.30;;;10.60;;
6438;SDS011;3252;52.540;13.290;2022-12-20T13:51:44;15.17;;;11.03;;
6438;SDS011;3252;52.540;13.290;2022-12-20T13:53:51;14.03;;;10.23;;
6438;SDS011;3252;52.540;13.290;2022-12-20T13:55:54;14.87;;;11.07;;
6438;SDS011;3252;52.540;13.290;2022-12-20T13:57:58;14.37;;;10.20;;
6438;SDS011;3252;52.540;13.290;2022-12-20T14:00:12;17.03;;;10.90;;
6438;SDS011;3252;52.540;13.290;2022-12-20T14:02:18;15.40;;;11.13;;
6438;SDS011;3252;52.540;13.290;2022-12-20T14:04:23;18.83;;;10.90;;
6438;SDS011;3252;52.540;13.290;2022-12-20T14:06:27;15.07;;;11.13;;
6438;SDS011;3252;52.540;13.290;2022-12-20T14:08:30;15.03;;;10.50;;
6438;SDS011;3252;52.540;13.290;2022-12-20T14:10:34;16.17;;;11.00;;
6438;SDS011;3252;52.540;13.290;2022-12-20T14:12:37;17.27;;;11.30;;
6438;SDS011;3252;52.540;13.290;2022-12-20T14:14:48;17.00;;;10.97;;
6438;SDS011;3252;52.540;13.290;2022-12-20T14:16:51;14.93;;;11.13;;